Time;durP1;ratioP1;P1;durP2;ratioP2;P2;SDS_P1;SDS_P2;PMS_P1;PMS_P2;Temp;Humidity;BMP_temperature;BMP_pressure;BME280_temperature;BME280_humidity;BME280_pressure;Samples;Min_cycle;Max_cycle;Signal;HPM_P1;HPM_P2
2022/08/14 00:01:42;;;;;;;6.03;5.35;;;24.20;96.90;;;;;;4978507;28;20043;-70
2022/08/14 00:04:08;;;;;;;7.88;5.53;;;24.20;96.80;;;;;;4978725;28;20035;-70
2022/08/14 00:06:34;;;;;;;7.60;5.07;;;24.20;96.80;;;;;;4977763;28;20341;-70
2022/08/14 00:08:59;;;;;;;6.90;5.32;;;24.20;96.90;;;;;;4993696;28;20098;-70
2022/08/14 00:11:27;;;;;;;6.65;5.55;;;24.20;96.90;;;;;;4978467;28;20069;-70
2022/08/14 00:13:53;;;;;;;9.30;5.97;;;24.10;97.00;;;;;;4978731;28;20046;-70
2022/08/14 00:16:19;;;;;;;8.30;5.72;;;24.00;97.10;;;;;;4976927;28;20078;-70
2022/08/14 00:18:45;;;;;;;10.85;5.75;;;23.90;97.20;;;;;;4978457;28;20046;-70
2022/08/14 00:21:10;;;;;;;7.78;5.60;;;23.80;97.30;;;;;;4978307;28;20126;-70
2022/08/14 00:23:36;;;;;;;8.25;5.88;;;23.70;97.40;;;;;;4978282;28;20042;-70
2022/08/14 00:26:02;;;;;;;7.40;5.93;;;23.70;97.50;;;;;;4977871;28;20409;-70
2022/08/14 00:28:28;;;;;;;10.77;6.03;;;23.70;97.50;;;;;;4978416;28;20504;-70
2022/08/14 00:30:56;;;;;;;8.70;5.90;;;23.70;97.60;;;;;;4978200;28;20066;-70
2022/08/14 00:33:23;;;;;;;8.75;6.18;;;23.60;97.60;;;;;;4978122;28;20042;-70
2022/08/14 00:35:49;;;;;;;11.32;5.72;;;23.60;97.60;;;;;;4978212;28;20325;-71
2022/08/14 00:38:17;;;;;;;6.95;6.05;;;23.60;97.70;;;;;;4978005;28;20122;-70
2022/08/14 00:40:43;;;;;;;8.00;5.65;;;23.60;97.70;;;;;;4977907;28;20426;-70
2022/08/14 00:43:09;;;;;;;9.43;6.00;;;23.60;97.80;;;;;;4977878;28;20085;-70
2022/08/14 00:45:35;;;;;;;8.00;5.95;;;23.50;97.80;;;;;;4976759;28;20097;-70
2022/08/14 00:48:01;;;;;;;7.50;6.22;;;23.50;97.90;;;;;;4977735;28;20381;-70
2022/08/14 00:50:29;;;;;;;7.15;5.97;;;23.50;98.00;;;;;;4977511;28;20043;-70
2022/08/14 00:52:56;;;;;;;8.95;6.55;;;23.40;98.00;;;;;;4977775;28;20047;-70
2022/08/14 00:55:23;;;;;;;6.63;5.88;;;23.40;98.00;;;;;;4977582;28;20341;-70
2022/08/14 00:58:29;;;;;;;9.95;6.68;;;23.40;98.00;;;;;;4977962;28;20318;-70
2022/08/14 01:00:35;;;;;;;12.40;6.55;;;23.40;98.10;;;;;;4992742;28;20042;-70
2022/08/14 01:03:03;;;;;;;9.10;6.40;;;23.30;98.10;;;;;;4977624;28;20038;-70
2022/08/14 01:05:29;;;;;;;8.88;6.55;;;23.20;98.20;;;;;;4977594;28;20062;-71
2022/08/14 01:07:58;;;;;;;9.18;6.32;;;23.20;98.30;;;;;;4977688;28;20035;-70
2022/08/14 01:13:15;;;;;;;9.90;6.75;;;23.10;98.40;;;;;;4977610;28;20049;-70
2022/08/14 01:15:45;;;;;;;12.68;7.35;;;23.10;98.50;;;;;;4977164;28;20147;-71
2022/08/14 01:21:02;;;;;;;8.90;6.95;;;23.00;98.60;;;;;;4977876;28;20385;-71
2022/08/14 01:23:30;;;;;;;11.90;7.28;;;23.00;98.60;;;;;;4977811;28;20043;-70
2022/08/14 01:25:57;;;;;;;7.85;6.63;;;23.00;98.70;;;;;;4977361;28;20349;-70
2022/08/14 01:28:25;;;;;;;11.05;7.70;;;23.00;98.70;;;;;;4977761;28;20062;-70
2022/08/14 01:30:56;;;;;;;8.25;7.13;;;22.90;98.90;;;;;;4992131;28;20548;-70
2022/08/14 01:33:28;;;;;;;9.57;7.18;;;22.90;98.80;;;;;;4977586;28;20054;-70
2022/08/14 01:35:59;;;;;;;10.35;7.28;;;22.90;98.80;;;;;;4977479;28;20055;-70
2022/08/14 01:38:33;;;;;;;8.65;7.20;;;22.80;98.90;;;;;;4977378;28;20039;-70
2022/08/14 01:41:05;;;;;;;8.65;7.53;;;22.80;99.10;;;;;;4977300;28;20448;-71
2022/08/14 01:43:33;;;;;;;8.63;7.80;;;22.70;98.90;;;;;;4977406;28;20043;-70
2022/08/14 01:45:59;;;;;;;11.43;7.88;;;22.70;99.00;;;;;;4977114;28;20078;-70
2022/08/14 01:48:29;;;;;;;9.80;7.38;;;22.70;99.00;;;;;;4977336;28;20043;-70
2022/08/14 01:50:56;;;;;;;10.15;7.50;;;22.70;99.00;;;;;;4977430;28;20042;-70
2022/08/14 01:53:22;;;;;;;9.15;7.65;;;22.70;99.00;;;;;;4977154;28;20479;-70
2022/08/14 01:55:50;;;;;;;11.13;7.70;;;22.70;99.10;;;;;;4977009;28;20047;-70
2022/08/14 01:58:17;;;;;;;10.40;7.93;;;22.60;99.20;;;;;;4977482;28;20402;-70
2022/08/14 02:00:43;;;;;;;10.23;7.88;;;22.60;99.20;;;;;;4976344;28;20412;-70
2022/08/14 02:03:08;;;;;;;11.05;8.18;;;22.60;99.20;;;;;;4980447;28;20058;-70
2022/08/14 02:05:35;;;;;;;13.40;8.35;;;22.60;99.30;;;;;;4980801;28;20038;-70
2022/08/14 02:08:00;;;;;;;11.68;8.27;;;22.60;99.30;;;;;;4980795;28;20441;-71
2022/08/14 02:10:29;;;;;;;8.93;7.95;;;22.60;99.30;;;;;;4980827;28;20070;-70
2022/08/14 02:12:56;;;;;;;9.32;8.25;;;22.60;99.30;;;;;;4980574;28;20310;-70
2022/08/14 02:15:22;;;;;;;10.25;8.18;;;22.60;99.30;;;;;;4980390;28;20043;-70
2022/08/14 02:17:49;;;;;;;11.35;8.68;;;22.60;99.30;;;;;;4980637;28;20039;-70
2022/08/14 02:20:16;;;;;;;11.40;9.35;;;22.60;99.30;;;;;;4980532;28;20459;-70
2022/08/14 02:22:42;;;;;;;9.98;8.52;;;22.60;99.40;;;;;;4995920;28;20047;-71
2022/08/14 02:25:09;;;;;;;9.70;8.27;;;22.50;99.40;;;;;;4979298;28;20093;-70
2022/08/14 02:27:36;;;;;;;12.20;9.02;;;22.50;99.40;;;;;;4980479;28;20043;-70
2022/08/14 02:30:03;;;;;;;9.88;8.88;;;22.40;99.40;;;;;;4980658;28;20047;-70
2022/08/14 02:32:30;;;;;;;10.70;9.23;;;22.40;99.50;;;;;;4980296;28;20054;-70
2022/08/14 02:34:56;;;;;;;11.88;9.05;;;22.40;99.50;;;;;;4980045;28;20436;-70
2022/08/14 02:37:22;;;;;;;10.25;8.13;;;22.40;99.60;;;;;;4980400;28;20039;-70
2022/08/14 02:39:49;;;;;;;11.00;8.68;;;22.40;99.60;;;;;;4980227;28;20034;-70
2022/08/14 02:42:22;;;;;;;11.63;8.30;;;22.30;99.60;;;;;;4980119;28;20447;-70
2022/08/14 02:44:48;;;;;;;10.30;9.05;;;22.30;99.60;;;;;;4979926;28;20053;-70
2022/08/14 02:47:14;;;;;;;11.82;8.90;;;22.30;99.70;;;;;;4979291;28;20051;-70
2022/08/14 02:49:40;;;;;;;10.02;8.57;;;22.10;99.70;;;;;;4979941;28;20039;-70
2022/08/14 02:52:07;;;;;;;14.77;9.70;;;22.10;99.80;;;;;;4979077;28;20368;-71
2022/08/14 02:54:34;;;;;;;11.25;9.35;;;22.20;99.80;;;;;;4980125;28;20039;-70
2022/08/14 02:57:04;;;;;;;12.57;9.50;;;22.20;99.80;;;;;;4979980;28;20046;-70
2022/08/14 02:59:32;;;;;;;16.60;9.55;;;22.10;99.80;;;;;;4980206;28;20372;-70
2022/08/14 03:01:58;;;;;;;10.13;9.13;;;22.10;99.80;;;;;;4979785;28;20043;-70
2022/08/14 03:04:27;;;;;;;11.75;9.95;;;22.10;99.80;;;;;;4979888;28;20038;-71
2022/08/14 03:06:53;;;;;;;14.07;10.43;;;22.00;99.90;;;;;;4979589;28;20178;-70
2022/08/14 03:09:18;;;;;;;15.23;9.75;;;22.00;99.90;;;;;;4979829;28;20046;-70
2022/08/14 03:11:45;;;;;;;11.90;9.23;;;21.90;99.90;;;;;;4979754;28;20337;-70
2022/08/14 03:14:11;;;;;;;13.15;9.57;;;21.90;99.90;;;;;;4979672;28;20082;-70
2022/08/14 03:16:38;;;;;;;14.45;10.15;;;21.90;99.90;;;;;;4979015;28;20046;-70
2022/08/14 03:19:08;;;;;;;12.25;9.98;;;21.90;99.90;;;;;;4979299;28;20035;-70
2022/08/14 03:21:36;;;;;;;11.43;9.77;;;21.90;99.90;;;;;;4978409;28;20042;-70
2022/08/14 03:26:29;;;;;;;12.57;9.93;;;21.80;99.90;;;;;;4979285;28;20067;-70
2022/08/14 03:28:55;;;;;;;12.07;10.50;;;21.80;99.90;;;;;;4979205;28;20051;-70
2022/08/14 03:31:22;;;;;;;11.85;9.65;;;21.80;99.90;;;;;;4978442;28;20049;-70
2022/08/14 03:33:49;;;;;;;12.55;10.90;;;21.80;99.90;;;;;;4979051;28;20047;-70
2022/08/14 03:36:18;;;;;;;12.75;10.70;;;21.80;99.90;;;;;;4979170;28;20079;-70
2022/08/14 03:38:46;;;;;;;12.70;10.25;;;21.80;99.90;;;;;;4979414;28;20126;-70
2022/08/14 03:41:15;;;;;;;13.93;10.30;;;21.80;99.90;;;;;;4979143;28;20405;-70
2022/08/14 03:43:45;;;;;;;14.05;10.40;;;21.80;99.90;;;;;;4979211;28;20042;-70
2022/08/14 03:46:12;;;;;;;22.65;11.05;;;21.80;99.90;;;;;;4978681;28;20122;-70
2022/08/14 03:48:40;;;;;;;16.98;10.27;;;21.80;99.90;;;;;;4978856;28;20405;-70
2022/08/14 03:51:08;;;;;;;11.93;10.07;;;21.90;99.90;;;;;;4979105;28;20043;-70
2022/08/14 03:53:36;;;;;;;13.43;10.20;;;21.90;99.90;;;;;;4978877;28;20039;-70
2022/08/14 03:56:04;;;;;;;14.68;10.27;;;21.90;99.90;;;;;;4978970;28;20089;-70
2022/08/14 03:58:31;;;;;;;12.77;10.18;;;21.90;99.90;;;;;;4978697;28;20129;-70
2022/08/14 04:00:58;;;;;;;12.48;9.82;;;21.90;99.90;;;;;;4978751;28;20349;-70
2022/08/14 04:03:25;;;;;;;15.27;10.45;;;21.80;99.90;;;;;;4978729;28;20053;-70
2022/08/14 04:05:52;;;;;;;12.20;9.48;;;21.80;99.90;;;;;;4978536;28;20436;-71
2022/08/14 04:08:18;;;;;;;14.20;10.18;;;21.80;99.90;;;;;;4978638;28;20133;-70
2022/08/14 04:10:45;;;;;;;13.68;10.20;;;21.80;99.90;;;;;;4978688;28;20047;-70
2022/08/14 04:13:11;;;;;;;13.85;10.13;;;21.70;99.90;;;;;;4993565;28;20377;-70
2022/08/14 04:15:37;;;;;;;13.60;10.82;;;21.70;99.90;;;;;;4977973;28;20049;-70
2022/08/14 04:18:07;;;;;;;13.02;10.30;;;21.70;99.90;;;;;;4978562;28;20043;-70
2022/08/14 04:20:38;;;;;;;12.75;10.23;;;21.70;99.90;;;;;;4978379;28;20070;-70
2022/08/14 04:23:05;;;;;;;13.90;9.90;;;21.70;99.90;;;;;;4978311;28;20042;-70
2022/08/14 04:25:35;;;;;;;16.33;10.32;;;21.70;99.90;;;;;;4977679;28;20113;-70
2022/08/14 04:28:04;;;;;;;14.88;10.25;;;21.70;99.90;;;;;;4978231;28;20047;-70
2022/08/14 04:30:37;;;;;;;12.68;10.50;;;21.70;99.90;;;;;;4978147;28;20512;-70
2022/08/14 04:33:07;;;;;;;12.45;9.90;;;21.70;99.90;;;;;;4978082;28;20053;-70
2022/08/14 04:35:33;;;;;;;11.70;9.73;;;21.70;99.90;;;;;;4978236;28;20047;-72
2022/08/14 04:43:38;;;;;;;11.57;9.43;;;21.60;99.90;;;;;;4977367;28;20172;-70
2022/08/14 04:46:13;;;;;;;12.40;10.55;;;21.60;99.90;;;;;;4977762;28;20054;-70
2022/08/14 04:48:39;;;;;;;11.25;10.02;;;21.60;99.90;;;;;;4978064;28;20039;-70
2022/08/14 04:51:08;;;;;;;12.45;9.60;;;21.60;99.90;;;;;;4977685;28;20038;-70
2022/08/14 04:53:36;;;;;;;12.43;10.05;;;21.60;99.90;;;;;;4977500;28;20127;-70
2022/08/14 04:56:04;;;;;;;10.38;9.25;;;21.60;99.90;;;;;;4977752;28;20488;-70
2022/08/14 04:58:32;;;;;;;11.77;10.20;;;21.60;99.90;;;;;;4977856;28;20038;-70
2022/08/14 05:00:58;;;;;;;11.77;9.90;;;21.60;99.90;;;;;;4978008;28;20042;-70
2022/08/14 05:03:28;;;;;;;12.93;9.95;;;21.70;99.90;;;;;;4977743;28;20046;-71
2022/08/14 05:05:57;;;;;;;13.35;10.05;;;21.60;99.90;;;;;;4977969;28;20137;-70
2022/08/14 05:08:23;;;;;;;12.18;9.82;;;21.60;99.90;;;;;;4977665;28;20078;-70
2022/08/14 05:10:52;;;;;;;12.05;9.45;;;21.60;99.90;;;;;;4977881;28;20056;-70
2022/08/14 05:13:22;;;;;;;10.00;8.82;;;21.70;99.90;;;;;;4976508;28;20406;-70
2022/08/14 05:15:51;;;;;;;10.65;9.40;;;21.70;99.90;;;;;;4974766;28;20053;-71
2022/08/14 05:18:22;;;;;;;12.10;9.75;;;21.80;99.90;;;;;;4976033;28;20053;-70
2022/08/14 05:20:53;;;;;;;13.23;10.32;;;21.90;99.90;;;;;;4977701;28;20333;-70
2022/08/14 05:23:33;;;;;;;11.48;10.27;;;22.10;99.90;;;;;;4977809;28;20043;-70
2022/08/14 05:26:01;;;;;;;11.45;9.38;;;22.20;99.90;;;;;;4977328;28;20437;-70
2022/08/14 05:28:32;;;;;;;15.65;11.30;;;22.40;99.90;;;;;;4977545;28;20042;-70
2022/08/14 05:31:01;;;;;;;15.15;9.95;;;22.50;99.90;;;;;;4977743;28;20050;-70
2022/08/14 05:33:28;;;;;;;13.35;10.98;;;22.60;99.90;;;;;;4977548;28;20050;-70
2022/08/14 05:35:59;;;;;;;12.98;10.18;;;22.70;99.90;;;;;;4977573;28;20097;-70
2022/08/14 05:38:34;;;;;;;15.00;10.55;;;22.80;99.90;;;;;;4981123;28;20504;-70
2022/08/14 05:41:05;;;;;;;17.63;10.30;;;22.90;99.90;;;;;;4981245;28;20051;-70
2022/08/14 05:43:31;;;;;;;13.57;9.73;;;23.10;99.90;;;;;;4981377;28;20034;-70
2022/08/14 05:45:57;;;;;;;14.73;10.15;;;23.20;99.80;;;;;;4980892;28;20049;-71
2022/08/14 05:48:24;;;;;;;12.77;9.85;;;23.40;99.80;;;;;;4981372;28;20057;-70
2022/08/14 05:50:53;;;;;;;13.48;9.93;;;23.40;99.70;;;;;;4981235;28;20174;-70
2022/08/14 05:53:23;;;;;;;9.82;8.80;;;23.40;99.80;;;;;;4980380;28;20109;-70
2022/08/14 05:55:49;;;;;;;11.95;9.13;;;23.50;99.90;;;;;;4981109;28;20038;-70
2022/08/14 05:58:15;;;;;;;12.45;8.65;;;23.50;99.80;;;;;;4979907;28;20421;-71
2022/08/14 06:00:43;;;;;;;15.68;10.75;;;23.60;99.90;;;;;;4980897;28;20118;-70
2022/08/14 06:03:21;;;;;;;16.15;10.27;;;23.70;99.80;;;;;;4981055;28;20035;-70
2022/08/14 06:05:50;;;;;;;12.40;9.40;;;23.90;99.80;;;;;;4980905;28;20129;-70
2022/08/14 06:08:21;;;;;;;15.73;10.65;;;23.80;99.70;;;;;;4980830;28;20057;-70
2022/08/14 06:10:47;;;;;;;13.02;10.40;;;23.90;99.60;;;;;;4981047;28;20081;-70
2022/08/14 06:13:13;;;;;;;12.57;10.10;;;23.90;99.60;;;;;;4980784;28;20368;-70
2022/08/14 06:15:40;;;;;;;11.07;8.88;;;23.90;99.70;;;;;;4980124;28;20499;-71
2022/08/14 06:18:06;;;;;;;11.55;9.68;;;23.90;99.70;;;;;;4980574;28;20050;-71
2022/08/14 06:20:32;;;;;;;11.63;9.52;;;24.10;99.60;;;;;;4980434;28;20078;-71
2022/08/14 06:22:58;;;;;;;16.70;9.95;;;24.10;99.50;;;;;;4980616;28;20291;-70
2022/08/14 06:25:25;;;;;;;12.48;8.60;;;24.20;99.40;;;;;;4995314;28;20109;-70
2022/08/14 06:27:51;;;;;;;13.75;10.15;;;24.20;99.70;;;;;;4980735;28;20165;-70
2022/08/14 06:30:22;;;;;;;13.13;9.10;;;24.40;99.50;;;;;;4995690;28;20318;-70
2022/08/14 06:32:48;;;;;;;14.43;10.35;;;24.40;99.60;;;;;;4980440;28;20053;-70
2022/08/14 06:35:16;;;;;;;12.23;9.82;;;24.60;99.60;;;;;;4980140;28;20046;-71
2022/08/14 06:37:48;;;;;;;11.32;10.13;;;24.70;99.60;;;;;;4980245;28;20425;-70
2022/08/14 06:40:17;;;;;;;14.25;10.05;;;24.60;99.40;;;;;;4980167;28;20352;-71
2022/08/14 06:42:43;;;;;;;14.65;10.52;;;24.80;99.50;;;;;;4980153;28;20132;-71
2022/08/14 06:45:10;;;;;;;11.85;8.65;;;24.80;99.40;;;;;;4979716;28;20475;-71
2022/08/14 06:47:41;;;;;;;13.63;9.98;;;24.90;99.60;;;;;;4979473;28;20048;-69
2022/08/14 06:50:10;;;;;;;11.80;10.10;;;24.80;99.30;;;;;;4980325;28;20054;-70
2022/08/14 06:52:36;;;;;;;15.68;10.50;;;24.80;99.40;;;;;;4980057;28;20045;-68
2022/08/14 06:55:04;;;;;;;14.20;10.10;;;25.00;99.30;;;;;;4980015;28;20057;-68
2022/08/14 06:57:41;;;;;;;12.43;11.13;;;25.00;99.30;;;;;;4995362;28;20391;-67
2022/08/14 07:00:10;;;;;;;15.80;10.07;;;25.00;99.20;;;;;;4980086;28;20046;-69
2022/08/14 07:08:32;;;;;;;10.90;8.13;;;25.30;99.10;;;;;;4979994;28;20050;-68
2022/08/14 07:11:02;;;;;;;13.60;9.60;;;25.40;99.30;;;;;;4978746;28;20047;-70
2022/08/14 07:13:28;;;;;;;14.40;9.32;;;25.70;99.20;;;;;;4979696;28;20345;-69
2022/08/14 07:15:55;;;;;;;11.95;9.88;;;25.50;99.20;;;;;;4976774;28;20046;-70
2022/08/14 07:18:26;;;;;;;13.55;10.32;;;25.50;99.20;;;;;;4979059;28;20034;-70
2022/08/14 07:20:53;;;;;;;9.60;8.55;;;25.70;99.10;;;;;;4969076;28;20118;-70
2022/08/14 07:23:20;;;;;;;12.57;10.10;;;25.80;99.20;;;;;;4975474;28;20038;-75
2022/08/14 07:25:47;;;;;;;12.98;8.77;;;26.00;99.00;;;;;;4992177;28;20166;-73
2022/08/14 07:28:19;;;;;;;10.27;8.95;;;26.00;99.10;;;;;;4980205;28;20131;-71
2022/08/14 07:30:45;;;;;;;11.68;9.40;;;26.00;99.10;;;;;;4976133;28;20106;-72
2022/08/14 07:33:11;;;;;;;10.95;8.40;;;26.10;98.80;;;;;;4977562;28;20054;-72
2022/08/14 07:35:39;;;;;;;9.75;7.03;;;26.00;99.10;;;;;;4976909;28;20070;-72
2022/08/14 07:38:05;;;;;;;10.80;8.65;;;26.40;99.10;;;;;;4977162;28;20441;-73
2022/08/14 07:40:32;;;;;;;10.98;8.15;;;26.10;98.80;;;;;;4978556;28;20086;-71
2022/08/14 07:42:58;;;;;;;11.38;8.60;;;26.00;98.70;;;;;;4979546;28;20039;-70
2022/08/14 07:45:23;;;;;;;8.52;7.63;;;26.00;98.70;;;;;;4978587;28;20109;-71
2022/08/14 07:47:50;;;;;;;8.43;7.18;;;26.00;98.90;;;;;;4978888;28;20070;-70
2022/08/14 07:50:17;;;;;;;8.00;6.88;;;26.20;98.90;;;;;;4978830;28;20043;-71
2022/08/14 07:52:44;;;;;;;7.90;7.10;;;26.40;98.80;;;;;;4979044;28;20038;-71
2022/08/14 07:55:11;;;;;;;10.70;7.35;;;26.50;98.80;;;;;;4978842;28;20424;-70
2022/08/14 07:57:42;;;;;;;15.25;7.72;;;26.70;98.90;;;;;;4978808;28;20333;-71
2022/08/14 08:00:13;;;;;;;10.85;7.85;;;26.90;98.80;;;;;;4978234;28;20110;-70
2022/08/14 08:02:41;;;;;;;10.85;7.07;;;27.00;98.50;;;;;;4978758;28;20121;-72
2022/08/14 08:05:09;;;;;;;8.98;7.13;;;26.90;98.40;;;;;;4978793;28;20479;-71
2022/08/14 08:07:36;;;;;;;9.23;6.82;;;27.00;98.50;;;;;;4978818;28;20047;-71
2022/08/14 08:10:29;;;;;;;12.38;6.43;;;27.10;98.70;;;;;;4978474;28;20173;-71
2022/08/14 08:12:54;;;;;;;9.20;7.00;;;27.30;98.60;;;;;;4978699;28;20124;-71
2022/08/14 08:15:20;;;;;;;10.25;6.68;;;27.40;98.40;;;;;;4977805;28;20333;-73
2022/08/14 08:17:46;;;;;;;10.82;7.28;;;27.50;98.40;;;;;;4978468;28;20182;-70
2022/08/14 08:20:25;;;;;;;7.78;6.65;;;27.50;98.30;;;;;;4977554;28;20082;-70
2022/08/14 08:22:55;;;;;;;11.05;7.47;;;27.40;98.30;;;;;;4978362;28;20035;-70
2022/08/14 08:25:25;;;;;;;10.25;7.03;;;27.40;98.40;;;;;;4977083;28;20051;-71
2022/08/14 08:28:12;;;;;;;7.80;7.00;;;27.50;98.30;;;;;;4978291;28;20050;-71
2022/08/14 08:30:41;;;;;;;9.32;6.70;;;27.40;98.40;;;;;;4978523;28;20335;-70
2022/08/14 08:33:13;;;;;;;8.40;6.63;;;27.60;98.20;;;;;;4978076;28;20125;-70
2022/08/14 08:35:39;;;;;;;11.32;6.53;;;27.60;97.90;;;;;;4978229;28;20054;-70
2022/08/14 08:38:10;;;;;;;8.18;6.40;;;27.60;98.10;;;;;;4977077;28;20046;-70
2022/08/14 08:40:40;;;;;;;8.98;6.50;;;27.60;98.10;;;;;;4977952;28;20451;-70
2022/08/14 08:43:08;;;;;;;8.38;6.20;;;27.70;98.00;;;;;;4977999;28;20050;-70
2022/08/14 08:45:35;;;;;;;6.68;5.90;;;27.70;98.10;;;;;;4977753;28;20413;-70
2022/08/14 08:48:02;;;;;;;10.82;6.45;;;27.90;98.20;;;;;;4978237;28;20089;-70
2022/08/14 08:50:38;;;;;;;7.35;6.07;;;28.10;98.00;;;;;;4976840;28;20126;-69
2022/08/14 08:53:08;;;;;;;6.85;6.05;;;28.10;97.70;;;;;;4977894;28;20054;-70
2022/08/14 08:55:44;;;;;;;10.45;6.05;;;28.00;97.90;;;;;;4978055;28;20046;-76
2022/08/14 08:58:13;;;;;;;7.43;6.15;;;28.00;97.80;;;;;;4978012;28;20492;-76
2022/08/14 09:00:40;;;;;;;11.68;6.05;;;27.80;97.90;;;;;;4976970;28;20328;-76
2022/08/14 09:03:14;;;;;;;8.77;5.68;;;27.70;98.00;;;;;;4977578;28;20034;-70
2022/08/14 09:05:51;;;;;;;7.13;5.60;;;27.80;97.80;;;;;;4977880;28;20365;-70
2022/08/14 09:08:19;;;;;;;9.23;5.70;;;27.90;97.60;;;;;;4977580;28;20441;-69
2022/08/14 09:10:46;;;;;;;8.20;5.65;;;28.10;97.80;;;;;;4977586;28;20400;-69
2022/08/14 09:13:14;;;;;;;9.35;5.50;;;28.30;97.70;;;;;;4977869;28;20050;-70
2022/08/14 09:15:42;;;;;;;8.98;6.10;;;28.60;97.60;;;;;;4977046;28;20082;-71
2022/08/14 09:18:09;;;;;;;6.78;5.68;;;28.80;97.70;;;;;;4977541;28;20436;-69
2022/08/14 09:20:37;;;;;;;11.40;5.82;;;29.10;97.50;;;;;;4977661;28;20050;-70
2022/08/14 09:23:04;;;;;;;9.23;6.15;;;29.10;97.60;;;;;;4977768;28;20118;-70
2022/08/14 09:25:30;;;;;;;9.05;5.78;;;29.10;97.30;;;;;;4977472;28;20434;-70
2022/08/14 09:27:56;;;;;;;6.47;5.82;;;29.20;97.40;;;;;;4977565;28;20031;-70
2022/08/14 09:30:22;;;;;;;6.45;5.45;;;29.30;97.30;;;;;;4977286;28;20361;-70
2022/08/14 09:33:02;;;;;;;6.75;5.20;;;29.30;97.10;;;;;;4977656;28;20053;-71
2022/08/14 09:35:52;;;;;;;6.68;4.97;;;29.50;97.10;;;;;;4977597;28;20126;-70
2022/08/14 09:38:21;;;;;;;6.30;5.53;;;29.50;97.10;;;;;;4977316;28;20552;-70
2022/08/14 09:41:25;;;;;;;7.90;5.43;;;29.80;97.00;;;;;;4977513;28;20039;-70
2022/08/14 09:44:01;;;;;;;7.45;5.88;;;29.70;97.20;;;;;;4977339;28;20467;-70
2022/08/14 09:46:27;;;;;;;6.28;5.47;;;29.80;97.20;;;;;;4976994;28;20066;-70
2022/08/14 09:49:05;;;;;;;6.03;5.43;;;29.90;96.90;;;;;;4977425;28;20039;-69
2022/08/14 09:51:32;;;;;;;5.90;5.30;;;29.90;97.00;;;;;;4977329;28;20047;-70
2022/08/14 09:54:11;;;;;;;6.90;5.70;;;30.00;97.10;;;;;;4977549;28;20041;-69
2022/08/14 09:56:45;;;;;;;6.53;5.80;;;30.20;96.70;;;;;;4977135;28;20047;-70
2022/08/14 09:59:13;;;;;;;6.45;5.70;;;30.20;96.90;;;;;;4977328;28;20035;-70
2022/08/14 10:01:39;;;;;;;7.13;5.72;;;30.20;96.90;;;;;;4977187;28;20430;-71
2022/08/14 10:04:23;;;;;;;9.10;5.53;;;30.10;97.00;;;;;;4978596;28;20047;-86
2022/08/14 10:06:49;;;;;;;7.63;5.45;;;30.20;96.70;;;;;;4976176;28;20047;-72
2022/08/14 10:09:15;;;;;;;8.07;5.38;;;30.20;96.50;;;;;;4977010;28;20057;-72
2022/08/14 10:11:55;;;;;;;5.40;4.90;;;30.30;96.50;;;;;;4977152;28;20042;-71
2022/08/14 10:14:24;;;;;;;6.75;4.93;;;30.10;96.60;;;;;;4976991;28;20124;-72
2022/08/14 10:16:54;;;;;;;6.95;4.88;;;30.40;96.50;;;;;;4975566;28;20047;-72
2022/08/14 10:19:22;;;;;;;5.22;4.50;;;30.90;96.50;;;;;;4977091;28;20039;-72
2022/08/14 10:22:06;;;;;;;5.22;4.70;;;31.00;96.50;;;;;;4977062;28;20443;-72
2022/08/14 10:24:40;;;;;;;5.63;5.13;;;30.70;96.20;;;;;;4980724;28;20042;-73
2022/08/14 10:27:22;;;;;;;5.57;4.90;;;30.70;96.40;;;;;;4980363;28;20177;-71
2022/08/14 10:29:58;;;;;;;6.05;5.20;;;30.90;96.30;;;;;;4980652;28;20045;-71
2022/08/14 10:32:24;;;;;;;7.55;4.65;;;31.00;96.30;;;;;;4979445;28;20062;-71
2022/08/14 10:34:50;;;;;;;6.20;4.85;;;31.40;96.40;;;;;;4980402;28;20035;-71
2022/08/14 10:37:17;;;;;;;5.18;4.68;;;31.50;96.20;;;;;;4980203;28;20504;-72
2022/08/14 10:39:56;;;;;;;6.00;4.70;;;31.40;96.10;;;;;;4979140;28;20147;-71
2022/08/14 10:42:21;;;;;;;5.40;4.90;;;31.60;96.40;;;;;;4980468;28;20082;-72
2022/08/14 10:44:49;;;;;;;5.30;4.80;;;31.90;96.10;;;;;;4980176;28;20043;-71
2022/08/14 10:47:17;;;;;;;7.43;4.45;;;32.30;95.90;;;;;;4979911;28;20444;-71
2022/08/14 10:49:57;;;;;;;5.65;4.40;;;32.40;95.90;;;;;;4979857;28;20089;-72
2022/08/14 10:52:26;;;;;;;6.40;4.53;;;32.70;95.90;;;;;;4980153;28;20074;-71
2022/08/14 10:55:06;;;;;;;8.65;4.35;;;32.80;95.70;;;;;;4980056;28;20082;-71
2022/08/14 10:57:34;;;;;;;5.55;5.00;;;33.00;95.80;;;;;;4980053;28;20042;-71
2022/08/14 11:00:12;;;;;;;8.00;4.80;;;32.80;95.70;;;;;;4980087;28;20118;-72
2022/08/14 11:02:40;;;;;;;8.38;5.22;;;32.40;95.60;;;;;;4979930;28;20042;-71
2022/08/14 11:05:17;;;;;;;6.97;4.70;;;32.40;95.80;;;;;;4979908;28;20066;-72
2022/08/14 11:07:54;;;;;;;8.07;5.20;;;32.40;95.70;;;;;;4979795;28;20077;-71
2022/08/14 11:10:25;;;;;;;6.57;4.85;;;32.20;95.90;;;;;;4979876;28;20039;-71
2022/08/14 11:12:55;;;;;;;11.07;5.25;;;32.40;95.50;;;;;;4979859;28;20049;-71
2022/08/14 11:15:28;;;;;;;7.93;5.10;;;32.60;95.60;;;;;;4979387;28;20082;-72
2022/08/14 11:17:55;;;;;;;5.75;5.22;;;32.80;95.40;;;;;;4980104;28;20078;-71
2022/08/14 11:20:23;;;;;;;6.90;4.75;;;33.00;95.30;;;;;;4979531;28;20307;-71
2022/08/14 11:22:55;;;;;;;6.20;5.10;;;32.70;95.30;;;;;;4979476;28;20089;-69
2022/08/14 11:25:24;;;;;;;7.65;5.28;;;32.80;95.50;;;;;;4979140;28;20047;-70
2022/08/14 11:27:52;;;;;;;5.78;5.28;;;33.10;95.50;;;;;;4979522;28;20130;-70
2022/08/14 11:30:21;;;;;;;5.60;5.00;;;33.40;95.30;;;;;;4979480;28;20043;-69
2022/08/14 11:32:48;;;;;;;6.78;5.10;;;33.40;95.30;;;;;;4978427;28;20170;-70
2022/08/14 11:35:16;;;;;;;5.55;4.93;;;33.40;95.10;;;;;;4979294;28;20326;-70
2022/08/14 11:38:03;;;;;;;6.90;4.43;;;33.30;94.90;;;;;;4979068;28;20035;-71
2022/08/14 11:40:34;;;;;;;6.15;4.60;;;33.60;95.20;;;;;;4979226;28;20038;-70
2022/08/14 11:43:02;;;;;;;5.97;5.13;;;33.90;94.90;;;;;;4979467;28;20082;-69
2022/08/14 11:45:31;;;;;;;7.22;4.88;;;33.70;95.00;;;;;;4978797;28;20097;-77
2022/08/14 11:47:57;;;;;;;6.15;5.00;;;33.80;95.10;;;;;;4979205;28;20039;-70
2022/08/14 11:50:27;;;;;;;9.52;5.25;;;34.00;95.00;;;;;;4978844;28;20133;-69
2022/08/14 11:52:55;;;;;;;5.47;4.90;;;34.30;94.80;;;;;;4979122;28;20074;-70
2022/08/14 11:55:25;;;;;;;5.78;5.28;;;33.90;94.90;;;;;;4979091;28;20047;-70
2022/08/14 11:58:08;;;;;;;5.95;5.35;;;34.00;94.80;;;;;;4978849;28;20039;-70
2022/08/14 12:00:58;;;;;;;6.05;5.38;;;33.80;94.60;;;;;;4982520;28;20118;-71
2022/08/14 12:03:41;;;;;;;6.07;4.80;;;34.10;94.70;;;;;;4978711;28;20042;-71
2022/08/14 12:06:15;;;;;;;5.30;4.70;;;34.20;94.60;;;;;;4978818;28;20039;-72
2022/08/14 12:08:41;;;;;;;7.07;5.18;;;34.70;94.90;;;;;;4977609;28;20055;-72
2022/08/14 12:11:09;;;;;;;5.93;4.97;;;35.10;94.50;;;;;;4993718;28;20049;-75
2022/08/14 12:13:35;;;;;;;7.10;4.90;;;35.10;94.50;;;;;;4978562;28;20038;-73
2022/08/14 12:16:06;;;;;;;5.38;4.88;;;34.70;94.20;;;;;;4978113;28;20523;-72
2022/08/14 12:18:36;;;;;;;6.05;5.35;;;34.70;94.30;;;;;;4978663;28;20035;-72
2022/08/14 12:21:18;;;;;;;5.90;5.30;;;35.20;94.40;;;;;;4977549;28;20508;-71
2022/08/14 12:23:44;;;;;;;6.65;5.20;;;35.40;94.30;;;;;;4978501;28;20058;-72
2022/08/14 12:26:19;;;;;;;7.25;5.10;;;35.00;94.00;;;;;;4978290;28;20137;-71
2022/08/14 12:28:50;;;;;;;5.40;4.85;;;35.10;94.00;;;;;;4978378;28;20332;-71
2022/08/14 12:31:18;;;;;;;6.63;5.30;;;35.20;94.10;;;;;;4978278;28;20488;-72
2022/08/14 12:33:58;;;;;;;7.50;5.25;;;35.30;94.30;;;;;;4978108;28;20055;-72
2022/08/14 12:36:29;;;;;;;8.90;5.28;;;35.50;93.90;;;;;;4978195;28;20326;-73
2022/08/14 12:38:56;;;;;;;6.05;4.95;;;34.90;93.90;;;;;;4978414;28;20051;-72
2022/08/14 12:41:25;;;;;;;6.28;4.53;;;35.00;94.00;;;;;;4978110;28;20117;-72
2022/08/14 12:44:06;;;;;;;9.43;5.13;;;35.00;94.10;;;;;;4978293;28;20342;-71
2022/08/14 12:46:36;;;;;;;7.68;5.40;;;34.90;94.00;;;;;;4977121;28;20046;-71
2022/08/14 12:49:13;;;;;;;6.38;5.30;;;35.10;93.80;;;;;;4978107;28;20043;-71
2022/08/14 12:51:39;;;;;;;6.90;5.47;;;35.00;93.70;;;;;;4977981;28;20077;-71
2022/08/14 12:54:17;;;;;;;7.55;4.93;;;35.00;94.00;;;;;;4977965;28;20042;-71
2022/08/14 12:56:45;;;;;;;6.93;5.00;;;35.20;93.80;;;;;;4977807;28;20101;-72
2022/08/14 12:59:11;;;;;;;6.30;5.07;;;35.00;93.80;;;;;;4975797;28;20035;-72
2022/08/14 13:01:38;;;;;;;5.28;4.78;;;35.50;94.00;;;;;;4977539;28;20035;-72
2022/08/14 13:04:09;;;;;;;6.75;4.90;;;35.90;94.00;;;;;;4977439;28;20433;-72
2022/08/14 13:06:36;;;;;;;6.35;4.93;;;36.10;93.70;;;;;;4977547;28;20047;-72
2022/08/14 13:09:06;;;;;;;6.82;5.30;;;35.90;93.50;;;;;;4977687;28;20149;-73
2022/08/14 13:11:44;;;;;;;8.68;5.20;;;35.80;93.60;;;;;;4976944;28;20397;-72